createdAt,value
2022-10-05T00:01:46.820Z,7.08
2022-10-05T00:04:52.621Z,7.13
2022-10-05T00:07:56.983Z,7.20
2022-10-05T00:10:59.811Z,7.26
2022-10-05T00:14:07.358Z,7.33
2022-10-05T00:17:13.827Z,7.39
2022-10-05T00:20:22.561Z,7.45
2022-10-05T00:23:27.651Z,7.50
2022-10-05T00:26:32.915Z,7.55
2022-10-05T00:29:35.490Z,7.60
2022-10-05T00:32:38.306Z,7.65
2022-10-05T00:35:41.211Z,7.67
2022-10-05T00:38:44.258Z,7.70
2022-10-05T00:41:55.283Z,7.71
2022-10-05T00:45:01.929Z,7.74
2022-10-05T00:48:12.526Z,7.76
2022-10-05T00:51:20.967Z,7.78
2022-10-05T00:54:29.437Z,7.78
2022-10-05T00:57:37.583Z,7.78
2022-10-05T01:00:43.834Z,7.77
2022-10-05T01:03:50.836Z,7.75
2022-10-05T01:06:59.570Z,7.72
2022-10-05T01:10:06.030Z,7.72
2022-10-05T01:13:15.106Z,7.72
2022-10-05T01:16:22.067Z,7.72
2022-10-05T01:19:39.371Z,7.72
2022-10-05T01:22:51.825Z,7.71
2022-10-05T01:26:03.521Z,7.71
2022-10-05T01:29:08.778Z,7.70
2022-10-05T01:32:14.873Z,7.72
2022-10-05T01:35:23.983Z,7.74
2022-10-05T01:38:33.882Z,7.75
2022-10-05T01:41:40.787Z,7.76
2022-10-05T01:44:47.380Z,7.77
2022-10-05T01:47:53.340Z,7.77
2022-10-05T01:51:00.797Z,7.75
2022-10-05T01:54:10.005Z,7.70
2022-10-05T01:57:15.944Z,7.66
2022-10-05T02:00:19.485Z,7.62
2022-10-05T02:03:24.963Z,7.59
2022-10-05T02:06:30.255Z,7.56
2022-10-05T02:09:34.405Z,7.57
2022-10-05T02:12:41.039Z,7.62
2022-10-05T02:15:45.557Z,7.67
2022-10-05T02:18:50.472Z,7.74
2022-10-05T02:21:55.392Z,7.79
2022-10-05T02:25:02.864Z,7.87
2022-10-05T02:28:09.655Z,7.95
2022-10-05T02:31:15.070Z,8.02
2022-10-05T02:34:22.556Z,8.07
2022-10-05T02:37:28.793Z,8.12
2022-10-05T02:40:37.814Z,8.16
2022-10-05T02:43:45.781Z,8.19
2022-10-05T02:46:57.156Z,8.20
2022-10-05T02:50:06.872Z,8.19
2022-10-05T02:53:17.583Z,8.20
2022-10-05T02:56:26.372Z,8.17
2022-10-05T02:59:33.682Z,8.12
2022-10-05T03:02:41.963Z,8.06
2022-10-05T03:05:48.059Z,8.00
2022-10-05T03:08:57.638Z,7.95
2022-10-05T03:12:07.549Z,7.89
2022-10-05T03:15:15.977Z,7.86
2022-10-05T03:18:28.545Z,7.84
2022-10-05T03:21:39.688Z,7.80
2022-10-05T03:24:52.107Z,7.77
2022-10-05T03:27:58.468Z,7.72
2022-10-05T03:31:03.365Z,7.69
2022-10-05T03:34:10.582Z,7.67
2022-10-05T03:37:16.462Z,7.66
2022-10-05T03:40:24.900Z,7.66
2022-10-05T03:43:41.445Z,7.64
2022-10-05T03:46:53.445Z,7.60
2022-10-05T03:50:06.047Z,7.55
2022-10-05T03:53:14.924Z,7.48
2022-10-05T03:56:23.994Z,7.41
2022-10-05T03:59:32.373Z,7.32
2022-10-05T04:02:40.139Z,7.25
2022-10-05T04:05:45.957Z,7.19
2022-10-05T04:08:52.192Z,7.15
2022-10-05T04:12:02.006Z,7.10
2022-10-05T04:15:17.993Z,7.08
2022-10-05T04:18:25.198Z,7.05
2022-10-05T04:21:29.921Z,7.02
2022-10-05T04:24:36.398Z,6.98
2022-10-05T04:27:41.785Z,6.95
2022-10-05T04:30:46.156Z,6.92
2022-10-05T04:33:54.960Z,6.88
2022-10-05T04:37:02.458Z,6.86
2022-10-05T04:40:15.077Z,6.84
2022-10-05T04:43:20.238Z,6.82
2022-10-05T04:46:29.497Z,6.81
2022-10-05T04:49:41.380Z,6.80
2022-10-05T04:52:51.682Z,6.79
2022-10-05T04:55:58.098Z,6.81
2022-10-05T04:59:16.836Z,6.85
2022-10-05T05:02:23.637Z,6.89
2022-10-05T05:05:31.927Z,6.93
2022-10-05T05:08:41.898Z,6.99
2022-10-05T05:11:52.110Z,7.07
2022-10-05T05:15:06.914Z,7.14
2022-10-05T05:18:34.284Z,7.22
2022-10-05T05:21:42.965Z,7.30
2022-10-05T05:24:52.879Z,7.38
2022-10-05T05:27:57.758Z,7.44
2022-10-05T05:31:06.196Z,7.49
2022-10-05T05:34:17.611Z,7.57
2022-10-05T05:37:25.824Z,7.64
2022-10-05T05:40:32.513Z,7.73
2022-10-05T05:43:42.803Z,7.83
2022-10-05T05:47:03.383Z,7.96
2022-10-05T05:50:19.845Z,8.12
2022-10-05T05:53:24.980Z,8.27
2022-10-05T05:56:32.298Z,8.42
2022-10-05T05:59:40.041Z,8.54
2022-10-05T06:02:45.730Z,8.67
2022-10-05T06:05:51.618Z,8.79
2022-10-05T06:08:56.660Z,8.89
2022-10-05T06:12:28.860Z,8.99
2022-10-05T06:15:34.508Z,9.06
2022-10-05T06:18:39.462Z,9.13
2022-10-05T06:21:44.439Z,9.20
2022-10-05T06:24:51.601Z,9.30
2022-10-05T06:28:08.930Z,9.40
2022-10-05T06:31:19.713Z,9.52
2022-10-05T06:34:34.869Z,9.65
2022-10-05T06:37:46.434Z,9.78
2022-10-05T06:40:57.385Z,9.87
2022-10-05T06:44:02.137Z,9.95
2022-10-05T06:47:22.264Z,10.05
2022-10-05T06:50:52.740Z,10.16
2022-10-05T06:54:27.438Z,10.31
2022-10-05T06:57:40.985Z,10.47
2022-10-05T07:00:49.216Z,10.70
2022-10-05T07:03:59.308Z,10.91
2022-10-05T07:07:03.092Z,11.14
2022-10-05T07:10:16.685Z,11.35
2022-10-05T07:13:37.771Z,11.52
2022-10-05T07:16:52.590Z,11.66
2022-10-05T07:20:00.400Z,11.73
2022-10-05T07:23:19.457Z,11.82
2022-10-05T07:26:27.462Z,11.91
2022-10-05T07:29:34.159Z,12.01
2022-10-05T07:32:39.422Z,12.09
2022-10-05T07:36:06.729Z,12.16
2022-10-05T07:39:13.916Z,12.25
2022-10-05T07:42:22.392Z,12.30
2022-10-05T07:45:28.277Z,12.36
2022-10-05T07:48:37.060Z,12.42
2022-10-05T07:51:41.358Z,12.46
2022-10-05T07:54:53.490Z,12.51
2022-10-05T07:58:02.171Z,12.57
2022-10-05T08:01:11.484Z,12.66
2022-10-05T08:04:17.602Z,12.73
2022-10-05T08:07:20.230Z,12.81
2022-10-05T08:10:31.198Z,12.90
2022-10-05T08:13:39.069Z,13.02
2022-10-05T08:16:42.047Z,13.14
2022-10-05T08:19:47.356Z,13.26
2022-10-05T08:22:54.000Z,13.41
2022-10-05T08:26:12.564Z,13.51
2022-10-05T08:29:18.906Z,13.65
2022-10-05T08:32:24.052Z,13.78
2022-10-05T08:35:33.452Z,13.87
2022-10-05T08:38:36.135Z,13.92
2022-10-05T08:41:55.957Z,13.98
2022-10-05T08:45:20.941Z,14.05
2022-10-05T08:48:33.622Z,14.18
2022-10-05T08:51:53.380Z,14.39
2022-10-05T08:55:13.998Z,14.59
2022-10-05T08:58:34.743Z,14.80
2022-10-05T09:01:46.163Z,15.03
2022-10-05T09:04:58.745Z,15.24
2022-10-05T09:08:12.964Z,15.45
2022-10-05T09:11:21.209Z,15.67
2022-10-05T09:14:38.683Z,15.81
2022-10-05T09:17:51.145Z,15.92
2022-10-05T09:20:54.666Z,16.02
2022-10-05T09:24:07.952Z,16.12
2022-10-05T09:27:13.907Z,16.10
2022-10-05T09:30:20.099Z,16.02
2022-10-05T09:33:55.152Z,15.91
2022-10-05T09:37:17.206Z,15.88
2022-10-05T09:40:35.921Z,15.98
2022-10-05T09:43:55.119Z,16.07
2022-10-05T09:47:11.770Z,16.17
2022-10-05T09:50:27.668Z,16.31
2022-10-05T09:53:44.187Z,16.43
2022-10-05T09:57:03.443Z,16.55
2022-10-05T10:00:23.539Z,16.69
2022-10-05T10:03:42.506Z,16.88
2022-10-05T10:06:54.808Z,17.04
2022-10-05T10:10:12.897Z,17.14
2022-10-05T10:13:23.090Z,17.31
2022-10-05T10:16:32.272Z,17.33
2022-10-05T10:19:51.900Z,17.28
2022-10-05T10:23:10.400Z,17.41
2022-10-05T10:26:34.560Z,17.78
2022-10-05T10:29:47.834Z,18.23
2022-10-05T10:33:02.551Z,18.54
2022-10-05T10:36:12.975Z,18.61
2022-10-05T10:39:19.857Z,18.67
2022-10-05T10:42:33.434Z,18.77
2022-10-05T10:45:46.322Z,18.79
2022-10-05T10:48:57.249Z,18.86
2022-10-05T10:52:10.061Z,18.84
2022-10-05T10:55:22.714Z,18.85
2022-10-05T10:58:48.770Z,19.01
2022-10-05T11:02:06.084Z,19.17
2022-10-05T11:05:15.640Z,19.37
2022-10-05T11:08:37.318Z,19.38
2022-10-05T11:11:58.178Z,19.47
2022-10-05T11:15:06.423Z,19.59
2022-10-05T11:18:15.391Z,19.81
2022-10-05T11:21:24.996Z,19.87
2022-10-05T11:24:47.963Z,19.89
2022-10-05T11:27:59.279Z,19.92
2022-10-05T11:31:24.907Z,19.83
2022-10-05T11:34:43.193Z,19.66
2022-10-05T11:38:03.511Z,19.64
2022-10-05T11:41:17.569Z,19.77
2022-10-05T11:44:34.201Z,19.82
2022-10-05T11:47:41.079Z,19.76
2022-10-05T11:50:48.534Z,19.84
2022-10-05T11:53:57.118Z,19.95
2022-10-05T11:57:10.640Z,20.04
2022-10-05T12:00:15.999Z,20.10
2022-10-05T12:03:28.550Z,20.15
2022-10-05T12:06:38.278Z,20.14
2022-10-05T12:10:04.931Z,20.09
2022-10-05T12:13:18.672Z,20.09
2022-10-05T12:16:24.303Z,20.20
2022-10-05T12:19:31.398Z,20.34
2022-10-05T12:22:36.092Z,20.46
2022-10-05T12:25:41.324Z,20.53
2022-10-05T12:28:46.954Z,20.54
2022-10-05T12:31:55.488Z,20.54
2022-10-05T12:35:02.608Z,20.53
2022-10-05T12:38:11.368Z,20.51
2022-10-05T12:41:18.120Z,20.48
2022-10-05T12:44:25.867Z,20.45
2022-10-05T12:47:32.423Z,20.41
2022-10-05T12:50:36.102Z,20.39
2022-10-05T12:53:47.837Z,20.36
2022-10-05T12:56:53.293Z,20.28
2022-10-05T13:00:00.915Z,20.20
2022-10-05T13:03:08.844Z,20.11
2022-10-05T13:06:17.228Z,20.11
2022-10-05T13:09:23.673Z,20.13
2022-10-05T13:12:35.477Z,20.17
2022-10-05T13:15:43.882Z,20.18
2022-10-05T13:18:58.280Z,20.17
2022-10-05T13:22:04.876Z,20.10
2022-10-05T13:25:17.235Z,20.14
2022-10-05T13:28:21.875Z,20.21
2022-10-05T13:31:27.269Z,20.28
2022-10-05T13:34:34.579Z,20.31
2022-10-05T13:37:40.745Z,20.32
2022-10-05T13:40:45.857Z,20.31
2022-10-05T13:43:52.519Z,20.38
2022-10-05T13:47:00.501Z,20.37
2022-10-05T13:50:05.678Z,20.30
2022-10-05T13:53:12.362Z,20.18
2022-10-05T13:56:17.876Z,20.07
2022-10-05T13:59:24.993Z,20.00
2022-10-05T14:02:29.273Z,19.96
2022-10-05T14:05:32.037Z,19.92
2022-10-05T14:08:35.790Z,19.86
2022-10-05T14:11:47.909Z,19.82
2022-10-05T14:14:52.926Z,19.81
2022-10-05T14:17:56.176Z,19.78
2022-10-05T14:21:03.251Z,19.75
2022-10-05T14:24:32.033Z,19.73
2022-10-05T14:27:49.597Z,19.69
2022-10-05T14:30:59.200Z,19.65
2022-10-05T14:34:29.328Z,19.60
2022-10-05T14:37:42.739Z,19.53
2022-10-05T14:40:45.656Z,19.47
2022-10-05T14:43:52.873Z,19.44
2022-10-05T14:46:58.244Z,19.43
2022-10-05T14:50:13.383Z,19.43
2022-10-05T14:53:17.154Z,19.41
2022-10-05T14:56:28.274Z,19.38
2022-10-05T14:59:53.886Z,19.38
2022-10-05T15:03:08.621Z,19.38
2022-10-05T15:06:15.546Z,19.41
2022-10-05T15:09:32.023Z,19.54
2022-10-05T15:12:37.640Z,19.72
2022-10-05T15:15:44.248Z,19.88
2022-10-05T15:18:50.988Z,20.07
2022-10-05T15:22:00.371Z,20.25
2022-10-05T15:25:12.786Z,20.39
2022-10-05T15:28:20.778Z,20.40
2022-10-05T15:31:33.258Z,20.25
2022-10-05T15:34:39.862Z,20.00
2022-10-05T15:37:43.543Z,19.88
2022-10-05T15:40:49.086Z,19.67
2022-10-05T15:43:58.207Z,19.37
2022-10-05T15:47:03.636Z,19.07
2022-10-05T15:50:14.316Z,18.80
2022-10-05T15:53:20.742Z,18.50
2022-10-05T15:56:26.655Z,18.21
2022-10-05T15:59:35.012Z,17.94
2022-10-05T16:02:41.051Z,17.67
2022-10-05T16:06:06.137Z,17.40
2022-10-05T16:09:13.983Z,17.12
2022-10-05T16:12:22.006Z,16.87
2022-10-05T16:15:27.971Z,16.63
2022-10-05T16:18:40.404Z,16.40
2022-10-05T16:21:50.934Z,16.16
2022-10-05T16:25:01.810Z,15.95
2022-10-05T16:28:11.306Z,15.74
2022-10-05T16:31:22.909Z,15.52
2022-10-05T16:34:34.197Z,15.32
2022-10-05T16:37:41.536Z,15.12
2022-10-05T16:40:50.046Z,14.94
2022-10-05T16:43:57.681Z,14.75
2022-10-05T16:47:04.040Z,14.59
2022-10-05T16:50:16.820Z,14.43
2022-10-05T16:53:22.066Z,14.29
2022-10-05T16:56:27.554Z,14.16
2022-10-05T16:59:44.447Z,14.02
2022-10-05T17:02:54.259Z,13.87
2022-10-05T17:06:07.666Z,13.74
2022-10-05T17:09:22.921Z,13.61
2022-10-05T17:12:33.172Z,13.48
2022-10-05T17:15:41.116Z,13.36
2022-10-05T17:19:14.546Z,13.24
2022-10-05T17:22:23.697Z,13.11
2022-10-05T17:25:34.177Z,13.01
2022-10-05T17:28:39.158Z,12.95
2022-10-05T17:32:01.175Z,12.93
2022-10-05T17:35:18.520Z,12.93
2022-10-05T17:38:23.254Z,12.90
2022-10-05T17:41:27.604Z,12.84
2022-10-05T17:44:30.153Z,12.78
2022-10-05T17:47:49.711Z,12.72
2022-10-05T17:51:12.839Z,12.63
2022-10-05T17:54:37.982Z,12.53
2022-10-05T17:57:41.318Z,12.45
2022-10-05T18:01:13.527Z,12.37
2022-10-05T18:04:25.811Z,12.29
2022-10-05T18:07:28.666Z,12.22
2022-10-05T18:10:31.938Z,12.17
2022-10-05T18:13:40.932Z,12.16
2022-10-05T18:16:59.973Z,12.17
2022-10-05T18:20:12.620Z,12.17
2022-10-05T18:23:35.159Z,12.20
2022-10-05T18:26:42.952Z,12.18
2022-10-05T18:30:04.770Z,12.14
2022-10-05T18:33:20.401Z,12.10
2022-10-05T18:36:37.908Z,12.03
2022-10-05T18:39:45.496Z,11.96
2022-10-05T18:42:53.355Z,11.90
2022-10-05T18:46:03.534Z,11.82
2022-10-05T18:49:18.996Z,11.74
2022-10-05T18:52:26.902Z,11.64
2022-10-05T18:55:33.059Z,11.53
2022-10-05T18:58:41.358Z,11.42
2022-10-05T19:01:51.574Z,11.32
2022-10-05T19:05:04.618Z,11.23
2022-10-05T19:08:10.468Z,11.17
2022-10-05T19:11:17.708Z,11.14
2022-10-05T19:14:24.659Z,11.11
2022-10-05T19:17:31.838Z,11.07
2022-10-05T19:20:37.405Z,11.04
2022-10-05T19:23:51.219Z,11.04
2022-10-05T19:27:00.615Z,11.03
2022-10-05T19:30:11.477Z,11.01
2022-10-05T19:33:25.350Z,10.96
2022-10-05T19:36:40.536Z,10.92
2022-10-05T19:39:47.412Z,10.88
2022-10-05T19:42:59.477Z,10.84
2022-10-05T19:46:19.203Z,10.80
2022-10-05T19:49:42.452Z,10.75
2022-10-05T19:52:49.790Z,10.71
2022-10-05T19:55:54.788Z,10.66
2022-10-05T19:58:59.000Z,10.61
2022-10-05T20:02:03.596Z,10.57
2022-10-05T20:05:07.286Z,10.55
2022-10-05T20:08:14.693Z,10.52
2022-10-05T20:11:18.128Z,10.50
2022-10-05T20:14:28.252Z,10.49
2022-10-05T20:17:49.359Z,10.50
2022-10-05T20:20:52.015Z,10.52
2022-10-05T20:24:06.408Z,10.52
2022-10-05T20:27:28.901Z,10.49
2022-10-05T20:30:33.334Z,10.43
2022-10-05T20:33:35.958Z,10.38
2022-10-05T20:36:39.848Z,10.38
2022-10-05T20:39:42.488Z,10.39
2022-10-05T20:42:45.181Z,10.40
2022-10-05T20:45:47.786Z,10.43
2022-10-05T20:48:51.973Z,10.42
2022-10-05T20:51:55.249Z,10.42
2022-10-05T20:54:58.314Z,10.43
2022-10-05T20:58:00.675Z,10.43
2022-10-05T21:01:15.872Z,10.43
2022-10-05T21:04:19.538Z,10.43
2022-10-05T21:07:22.803Z,10.43
2022-10-05T21:10:25.489Z,10.42
2022-10-05T21:13:28.194Z,10.37
2022-10-05T21:16:30.985Z,10.31
2022-10-05T21:19:37.711Z,10.22
2022-10-05T21:22:40.460Z,10.11
2022-10-05T21:25:44.848Z,10.02
2022-10-05T21:28:47.318Z,9.93
2022-10-05T21:31:50.104Z,9.87
2022-10-05T21:34:52.609Z,9.83
2022-10-05T21:37:55.381Z,9.79
2022-10-05T21:40:57.985Z,9.76
2022-10-05T21:44:00.623Z,9.73
2022-10-05T21:47:03.691Z,9.70
2022-10-05T21:50:08.055Z,9.66
2022-10-05T21:53:13.180Z,9.63
2022-10-05T21:56:17.503Z,9.59
2022-10-05T21:59:21.457Z,9.54
2022-10-05T22:02:24.017Z,9.51
2022-10-05T22:05:26.696Z,9.47
2022-10-05T22:08:30.794Z,9.44
2022-10-05T22:11:33.730Z,9.40
2022-10-05T22:14:36.235Z,9.38
2022-10-05T22:17:39.856Z,9.35
2022-10-05T22:20:42.478Z,9.32
2022-10-05T22:23:45.812Z,9.31
2022-10-05T22:26:50.810Z,9.30
2022-10-05T22:29:54.033Z,9.32
2022-10-05T22:32:56.601Z,9.31
2022-10-05T22:35:59.936Z,9.31
2022-10-05T22:39:02.554Z,9.30
2022-10-05T22:42:05.472Z,9.30
2022-10-05T22:45:08.866Z,9.29
2022-10-05T22:48:11.554Z,9.26
2022-10-05T22:51:14.136Z,9.24
2022-10-05T22:54:16.745Z,9.22
2022-10-05T22:57:19.394Z,9.20
2022-10-05T23:00:27.582Z,9.17
2022-10-05T23:03:30.620Z,9.12
2022-10-05T23:06:33.265Z,9.09
2022-10-05T23:09:35.824Z,9.09
2022-10-05T23:12:38.382Z,9.13
2022-10-05T23:15:41.897Z,9.16
2022-10-05T23:18:46.241Z,9.21
2022-10-05T23:21:48.850Z,9.26
2022-10-05T23:24:51.656Z,9.33
2022-10-05T23:27:54.131Z,9.39
2022-10-05T23:31:00.475Z,9.42
2022-10-05T23:34:03.229Z,9.46
2022-10-05T23:37:08.870Z,9.51
2022-10-05T23:40:14.912Z,9.55
2022-10-05T23:43:17.769Z,9.59
2022-10-05T23:46:20.563Z,9.60
2022-10-05T23:49:23.357Z,9.59
2022-10-05T23:52:25.924Z,9.56
2022-10-05T23:55:28.396Z,9.51
2022-10-05T23:58:31.532Z,9.47
